sensor_id;sensor_type;location;lat;lon;timestamp;pressure;altitude;pressure_sealevel;temperature;humidity
72857;BME280;62742;52.136;4.500;2023-08-12T00:00:05;101771.03;;;19.50;91.36
72857;BME280;62742;52.136;4.500;2023-08-12T00:02:40;101772.09;;;19.46;91.66
72857;BME280;62742;52.136;4.500;2023-08-12T00:05:08;101772.31;;;19.40;92.05
72857;BME280;62742;52.136;4.500;2023-08-12T00:07:37;101770.66;;;19.37;91.64
72857;BME280;62742;52.136;4.500;2023-08-12T00:10:04;101769.75;;;19.37;91.93
72857;BME280;62742;52.136;4.500;2023-08-12T00:12:32;101760.91;;;19.36;92.29
72857;BME280;62742;52.136;4.500;2023-08-12T00:15:00;101759.19;;;19.35;92.26
72857;BME280;62742;52.136;4.500;2023-08-12T00:17:27;101757.44;;;19.34;92.68
72857;BME280;62742;52.136;4.500;2023-08-12T00:19:53;101757.38;;;19.36;92.55
72857;BME280;62742;52.136;4.500;2023-08-12T00:22:20;101756.63;;;19.32;92.83
72857;BME280;62742;52.136;4.500;2023-08-12T00:24:49;101752.84;;;19.38;92.98
72857;BME280;62742;52.136;4.500;2023-08-12T00:27:17;101756.63;;;19.32;93.11
72857;BME280;62742;52.136;4.500;2023-08-12T00:29:44;101750.41;;;19.32;93.29
72857;BME280;62742;52.136;4.500;2023-08-12T00:32:10;101749.66;;;19.28;92.61
72857;BME280;62742;52.136;4.500;2023-08-12T00:34:37;101749.53;;;19.31;92.76
72857;BME280;62742;52.136;4.500;2023-08-12T00:37:04;101750.41;;;19.32;92.93
72857;BME280;62742;52.136;4.500;2023-08-12T00:39:30;101743.56;;;19.24;93.82
72857;BME280;62742;52.136;4.500;2023-08-12T00:41:57;101743.88;;;19.17;93.80
72857;BME280;62742;52.136;4.500;2023-08-12T00:44:23;101740.16;;;19.21;93.91
72857;BME280;62742;52.136;4.500;2023-08-12T00:46:52;101743.81;;;19.18;94.04
72857;BME280;62742;52.136;4.500;2023-08-12T00:49:18;101731.47;;;19.16;93.49
72857;BME280;62742;52.136;4.500;2023-08-12T00:51:45;101724.22;;;19.19;93.69
72857;BME280;62742;52.136;4.500;2023-08-12T00:54:16;101727.81;;;19.18;93.60
72857;BME280;62742;52.136;4.500;2023-08-12T00:56:44;101727.81;;;19.18;93.74
72857;BME280;62742;52.136;4.500;2023-08-12T00:59:11;101720.63;;;19.20;93.71
72857;BME280;62742;52.136;4.500;2023-08-12T01:01:40;101727.81;;;19.18;94.12
72857;BME280;62742;52.136;4.500;2023-08-12T01:04:10;101725.16;;;19.18;94.50
72857;BME280;62742;52.136;4.500;2023-08-12T01:06:36;101717.03;;;19.21;94.43
72857;BME280;62742;52.136;4.500;2023-08-12T01:09:04;101718.84;;;19.21;94.55
72857;BME280;62742;52.136;4.500;2023-08-12T01:11:45;101714.44;;;19.20;94.55
72857;BME280;62742;52.136;4.500;2023-08-12T01:17:17;101715.31;;;19.20;96.20
72857;BME280;62742;52.136;4.500;2023-08-12T01:19:45;101715.00;;;19.28;96.16
72857;BME280;62742;52.136;4.500;2023-08-12T01:22:14;101708.00;;;19.25;96.37
72857;BME280;62742;52.136;4.500;2023-08-12T01:24:44;101703.66;;;19.23;95.91
72857;BME280;62742;52.136;4.500;2023-08-12T01:27:12;101700.94;;;19.24;96.01
72857;BME280;62742;52.136;4.500;2023-08-12T01:29:45;101692.81;;;19.28;96.20
72857;BME280;62742;52.136;4.500;2023-08-12T01:35:19;101687.53;;;19.26;94.69
72857;BME280;62742;52.136;4.500;2023-08-12T01:37:50;101691.31;;;19.20;96.17
72857;BME280;62742;52.136;4.500;2023-08-12T01:40:19;101690.28;;;19.24;95.93
72857;BME280;62742;52.136;4.500;2023-08-12T01:42:48;101683.44;;;19.17;95.77
72857;BME280;62742;52.136;4.500;2023-08-12T01:45:14;101689.56;;;19.19;95.71
72857;BME280;62742;52.136;4.500;2023-08-12T01:47:44;101684.31;;;19.18;95.64
72857;BME280;62742;52.136;4.500;2023-08-12T01:50:11;101682.69;;;19.14;95.85
72857;BME280;62742;52.136;4.500;2023-08-12T01:52:37;101681.88;;;19.12;95.51
72857;BME280;62742;52.136;4.500;2023-08-12T01:55:04;101677.41;;;19.12;95.51
72857;BME280;62742;52.136;4.500;2023-08-12T01:57:30;101674.53;;;19.18;95.92
72857;BME280;62742;52.136;4.500;2023-08-12T01:59:57;101678.13;;;19.17;95.39
72857;BME280;62742;52.136;4.500;2023-08-12T02:02:23;101673.69;;;19.16;95.64
72857;BME280;62742;52.136;4.500;2023-08-12T02:04:50;101671.94;;;19.17;95.49
72857;BME280;62742;52.136;4.500;2023-08-12T02:07:16;101665.72;;;19.16;95.42
72857;BME280;62742;52.136;4.500;2023-08-12T02:09:43;101659.47;;;19.17;95.53
72857;BME280;62742;52.136;4.500;2023-08-12T02:12:09;101663.88;;;19.18;95.55
72857;BME280;62742;52.136;4.500;2023-08-12T02:14:36;101659.41;;;19.19;96.13
72857;BME280;62742;52.136;4.500;2023-08-12T02:17:03;101658.53;;;19.18;95.44
72857;BME280;62742;52.136;4.500;2023-08-12T02:19:33;101654.94;;;19.19;95.91
72857;BME280;62742;52.136;4.500;2023-08-12T02:22:01;101654.06;;;19.19;95.86
72857;BME280;62742;52.136;4.500;2023-08-12T02:24:29;101653.38;;;19.14;96.03
72857;BME280;62742;52.136;4.500;2023-08-12T02:26:56;101656.91;;;19.14;95.71
72857;BME280;62742;52.136;4.500;2023-08-12T02:29:22;101656.78;;;19.17;95.55
72857;BME280;62742;52.136;4.500;2023-08-12T02:31:49;101647.88;;;19.18;95.77
72857;BME280;62742;52.136;4.500;2023-08-12T02:34:15;101646.88;;;19.21;95.47
72857;BME280;62742;52.136;4.500;2023-08-12T02:36:42;101648.69;;;19.20;95.23
72857;BME280;62742;52.136;4.500;2023-08-12T02:39:08;101645.03;;;19.23;95.52
72857;BME280;62742;52.136;4.500;2023-08-12T02:41:35;101642.50;;;19.20;95.90
72857;BME280;62742;52.136;4.500;2023-08-12T02:44:01;101649.72;;;19.16;96.56
72857;BME280;62742;52.136;4.500;2023-08-12T02:46:28;101639.22;;;19.13;96.28
72857;BME280;62742;52.136;4.500;2023-08-12T02:48:55;101639.06;;;19.16;96.27
72857;BME280;62742;52.136;4.500;2023-08-12T02:51:21;101636.28;;;19.19;96.63
72857;BME280;62742;52.136;4.500;2023-08-12T02:53:48;101630.16;;;19.17;96.57
72857;BME280;62742;52.136;4.500;2023-08-12T02:56:14;101636.28;;;19.19;97.23
72857;BME280;62742;52.136;4.500;2023-08-12T02:58:41;101638.94;;;19.19;97.45
72857;BME280;62742;52.136;4.500;2023-08-12T03:01:07;101630.16;;;19.17;97.30
72857;BME280;62742;52.136;4.500;2023-08-12T03:03:34;101622.56;;;19.30;97.31
72857;BME280;62742;52.136;4.500;2023-08-12T03:06:00;101617.97;;;19.34;97.74
72857;BME280;62742;52.136;4.500;2023-08-12T03:08:27;101617.28;;;19.29;98.36
72857;BME280;62742;52.136;4.500;2023-08-12T03:11:00;101621.88;;;19.25;98.04
72857;BME280;62742;52.136;4.500;2023-08-12T03:13:28;101618.31;;;19.24;98.92
72857;BME280;62742;52.136;4.500;2023-08-12T03:15:55;101614.91;;;19.21;98.99
72857;BME280;62742;52.136;4.500;2023-08-12T03:18:22;101603.44;;;19.19;98.42
72857;BME280;62742;52.136;4.500;2023-08-12T03:20:49;101606.34;;;19.35;98.75
72857;BME280;62742;52.136;4.500;2023-08-12T03:23:16;101606.63;;;19.29;99.20
72857;BME280;62742;52.136;4.500;2023-08-12T03:25:42;101605.19;;;19.42;99.23
72857;BME280;62742;52.136;4.500;2023-08-12T03:28:09;101602.16;;;19.29;99.81
72857;BME280;62742;52.136;4.500;2023-08-12T03:30:35;101591.59;;;19.26;100.00
72857;BME280;62742;52.136;4.500;2023-08-12T03:33:02;101587.28;;;19.23;100.00
72857;BME280;62742;52.136;4.500;2023-08-12T03:35:29;101594.34;;;19.24;100.00
72857;BME280;62742;52.136;4.500;2023-08-12T03:37:55;101587.34;;;19.22;100.00
72857;BME280;62742;52.136;4.500;2023-08-12T03:40:22;101597.19;;;19.20;100.00
72857;BME280;62742;52.136;4.500;2023-08-12T03:42:48;101589.00;;;19.24;100.00
72857;BME280;62742;52.136;4.500;2023-08-12T03:45:14;101574.75;;;19.25;100.00
72857;BME280;62742;52.136;4.500;2023-08-12T03:47:44;101566.31;;;19.36;100.00
72857;BME280;62742;52.136;4.500;2023-08-12T03:50:10;101569.31;;;19.29;100.00
72857;BME280;62742;52.136;4.500;2023-08-12T03:52:37;101572.78;;;19.31;100.00
72857;BME280;62742;52.136;4.500;2023-08-12T03:55:04;101571.97;;;19.29;100.00
72857;BME280;62742;52.136;4.500;2023-08-12T03:57:31;101572.91;;;19.28;100.00
72857;BME280;62742;52.136;4.500;2023-08-12T03:59:57;101569.44;;;19.25;100.00
72857;BME280;62742;52.136;4.500;2023-08-12T04:02:24;101574.88;;;19.22;100.00
72857;BME280;62742;52.136;4.500;2023-08-12T04:04:50;101563.31;;;19.23;100.00
72857;BME280;62742;52.136;4.500;2023-08-12T04:07:17;101561.38;;;19.27;100.00
72857;BME280;62742;52.136;4.500;2023-08-12T04:09:43;101553.19;;;19.32;100.00
72857;BME280;62742;52.136;4.500;2023-08-12T04:12:10;101548.00;;;19.29;100.00
72857;BME280;62742;52.136;4.500;2023-08-12T04:14:36;101541.78;;;19.28;100.00
72857;BME280;62742;52.136;4.500;2023-08-12T04:17:03;101540.78;;;19.31;100.00
72857;BME280;62742;52.136;4.500;2023-08-12T04:19:29;101548.00;;;19.29;100.00
72857;BME280;62742;52.136;4.500;2023-08-12T04:21:56;101549.81;;;19.27;100.00
72857;BME280;62742;52.136;4.500;2023-08-12T04:24:23;101535.59;;;19.28;100.00
72857;BME280;62742;52.136;4.500;2023-08-12T04:26:49;101534.72;;;19.27;100.00
72857;BME280;62742;52.136;4.500;2023-08-12T04:29:16;101530.19;;;19.29;100.00
72857;BME280;62742;52.136;4.500;2023-08-12T04:31:42;101531.25;;;19.25;100.00
72857;BME280;62742;52.136;4.500;2023-08-12T04:34:09;101527.59;;;19.28;100.00
72857;BME280;62742;52.136;4.500;2023-08-12T04:36:36;101525.03;;;19.24;100.00
72857;BME280;62742;52.136;4.500;2023-08-12T04:39:02;101516.25;;;19.22;100.00
72857;BME280;62742;52.136;4.500;2023-08-12T04:41:29;101523.34;;;19.23;100.00
72857;BME280;62742;52.136;4.500;2023-08-12T04:43:56;101528.66;;;19.23;100.00
72857;BME280;62742;52.136;4.500;2023-08-12T04:46:22;101528.66;;;19.23;100.00
72857;BME280;62742;52.136;4.500;2023-08-12T04:48:49;101523.28;;;19.25;100.00
72857;BME280;62742;52.136;4.500;2023-08-12T04:51:15;101524.94;;;19.28;100.00
72857;BME280;62742;52.136;4.500;2023-08-12T04:53:42;101515.13;;;19.28;100.00
72857;BME280;62742;52.136;4.500;2023-08-12T04:56:08;101509.72;;;19.30;100.00
72857;BME280;62742;52.136;4.500;2023-08-12T04:58:35;101504.34;;;19.31;100.00
72857;BME280;62742;52.136;4.500;2023-08-12T05:01:01;101503.47;;;19.31;100.00
72857;BME280;62742;52.136;4.500;2023-08-12T05:03:29;101500.53;;;19.37;100.00
72857;BME280;62742;52.136;4.500;2023-08-12T05:05:55;101481.88;;;19.37;100.00
72857;BME280;62742;52.136;4.500;2023-08-12T05:08:22;101491.56;;;19.39;100.00
72857;BME280;62742;52.136;4.500;2023-08-12T05:10:49;101489.81;;;19.38;100.00
72857;BME280;62742;52.136;4.500;2023-08-12T05:13:16;101503.97;;;19.40;100.00
72857;BME280;62742;52.136;4.500;2023-08-12T05:15:47;101499.44;;;19.42;100.00
72857;BME280;62742;52.136;4.500;2023-08-12T05:18:14;101496.78;;;19.42;100.00
72857;BME280;62742;52.136;4.500;2023-08-12T05:20:42;101509.97;;;19.46;100.00
72857;BME280;62742;52.136;4.500;2023-08-12T05:23:08;101505.44;;;19.48;100.00
72857;BME280;62742;52.136;4.500;2023-08-12T05:25:35;101507.09;;;19.50;100.00
72857;BME280;62742;52.136;4.500;2023-08-12T05:28:02;101507.16;;;19.49;100.00
72857;BME280;62742;52.136;4.500;2023-08-12T05:30:28;101513.16;;;19.54;100.00
72857;BME280;62742;52.136;4.500;2023-08-12T05:32:55;101514.13;;;19.53;100.00
72857;BME280;62742;52.136;4.500;2023-08-12T05:35:21;101517.69;;;19.52;100.00
72857;BME280;62742;52.136;4.500;2023-08-12T05:37:48;101522.19;;;19.51;100.00
72857;BME280;62742;52.136;4.500;2023-08-12T05:40:14;101505.16;;;19.54;100.00
72857;BME280;62742;52.136;4.500;2023-08-12T05:42:41;101503.31;;;19.56;100.00
72857;BME280;62742;52.136;4.500;2023-08-12T05:45:08;101508.50;;;19.59;100.00
72857;BME280;62742;52.136;4.500;2023-08-12T05:47:34;101509.50;;;19.56;100.00
72857;BME280;62742;52.136;4.500;2023-08-12T05:50:01;101509.50;;;19.56;100.00
72857;BME280;62742;52.136;4.500;2023-08-12T05:52:28;101506.66;;;19.61;100.00
72857;BME280;62742;52.136;4.500;2023-08-12T05:54:54;101504.84;;;19.61;100.00
72857;BME280;62742;52.136;4.500;2023-08-12T05:57:21;101509.22;;;19.62;100.00
72857;BME280;62742;52.136;4.500;2023-08-12T05:59:47;101511.16;;;19.59;100.00
72857;BME280;62742;52.136;4.500;2023-08-12T06:02:14;101504.84;;;19.61;100.00
72857;BME280;62742;52.136;4.500;2023-08-12T06:04:40;101504.72;;;19.65;100.00
72857;BME280;62742;52.136;4.500;2023-08-12T06:07:07;101501.22;;;19.62;100.00
72857;BME280;62742;52.136;4.500;2023-08-12T06:09:33;101501.34;;;19.61;100.00
72857;BME280;62742;52.136;4.500;2023-08-12T06:12:00;101503.03;;;19.62;100.00
72857;BME280;62742;52.136;4.500;2023-08-12T06:14:26;101493.09;;;19.66;100.00
72857;BME280;62742;52.136;4.500;2023-08-12T06:16:53;101496.56;;;19.68;100.00
72857;BME280;62742;52.136;4.500;2023-08-12T06:19:19;101490.31;;;19.69;100.00
72857;BME280;62742;52.136;4.500;2023-08-12T06:21:46;101497.34;;;19.71;100.00
72857;BME280;62742;52.136;4.500;2023-08-12T06:24:12;101498.03;;;19.76;100.00
72857;BME280;62742;52.136;4.500;2023-08-12T06:26:39;101494.47;;;19.76;100.00
72857;BME280;62742;52.136;4.500;2023-08-12T06:29:05;101497.06;;;19.77;100.00
72857;BME280;62742;52.136;4.500;2023-08-12T06:31:32;101500.63;;;19.78;100.00
72857;BME280;62742;52.136;4.500;2023-08-12T06:33:58;101492.69;;;19.76;100.00
72857;BME280;62742;52.136;4.500;2023-08-12T06:36:25;101497.88;;;19.79;100.00
72857;BME280;62742;52.136;4.500;2023-08-12T06:38:52;101491.63;;;19.80;100.00
72857;BME280;62742;52.136;4.500;2023-08-12T06:41:18;101499.44;;;19.85;100.00
72857;BME280;62742;52.136;4.500;2023-08-12T06:43:45;101490.63;;;19.83;100.00
72857;BME280;62742;52.136;4.500;2023-08-12T06:46:11;101491.50;;;19.84;100.00
72857;BME280;62742;52.136;4.500;2023-08-12T06:48:38;101492.34;;;19.84;100.00
72857;BME280;62742;52.136;4.500;2023-08-12T06:51:04;101495.97;;;19.83;100.00
72857;BME280;62742;52.136;4.500;2023-08-12T06:53:37;101497.56;;;19.87;100.00
72857;BME280;62742;52.136;4.500;2023-08-12T06:56:05;101491.28;;;19.88;100.00
72857;BME280;62742;52.136;4.500;2023-08-12T06:58:31;101496.75;;;19.85;100.00
72857;BME280;62742;52.136;4.500;2023-08-12T07:00:58;101501.56;;;19.77;100.00
72857;BME280;62742;52.136;4.500;2023-08-12T07:03:25;101518.97;;;19.43;100.00
72857;BME280;62742;52.136;4.500;2023-08-12T07:05:55;101518.13;;;19.20;100.00
72857;BME280;62742;52.136;4.500;2023-08-12T07:08:22;101517.13;;;19.01;100.00
72857;BME280;62742;52.136;4.500;2023-08-12T07:10:48;101524.06;;;19.05;100.00
72857;BME280;62742;52.136;4.500;2023-08-12T07:13:14;101533.25;;;18.98;100.00
72857;BME280;62742;52.136;4.500;2023-08-12T07:15:41;101533.34;;;18.95;99.54
72857;BME280;62742;52.136;4.500;2023-08-12T07:18:08;101525.31;;;18.73;99.78
72857;BME280;62742;52.136;4.500;2023-08-12T07:20:34;101525.59;;;18.65;100.00
72857;BME280;62742;52.136;4.500;2023-08-12T07:23:02;101538.69;;;18.47;98.87
72857;BME280;62742;52.136;4.500;2023-08-12T07:25:28;101533.88;;;18.34;99.32
72857;BME280;62742;52.136;4.500;2023-08-12T07:27:55;101526.00;;;18.30;98.42
72857;BME280;62742;52.136;4.500;2023-08-12T07:30:22;101531.22;;;18.34;97.86
72857;BME280;62742;52.136;4.500;2023-08-12T07:32:48;101517.84;;;18.35;97.88
72857;BME280;62742;52.136;4.500;2023-08-12T07:35:15;101530.84;;;18.43;97.24
72857;BME280;62742;52.136;4.500;2023-08-12T07:37:41;101520.22;;;18.43;96.51
72857;BME280;62742;52.136;4.500;2023-08-12T07:40:08;101513.09;;;18.20;97.57
72857;BME280;62742;52.136;4.500;2023-08-12T07:42:35;101516.31;;;18.29;98.17
72857;BME280;62742;52.136;4.500;2023-08-12T07:45:02;101522.19;;;18.38;98.17
72857;BME280;62742;52.136;4.500;2023-08-12T07:47:29;101527.75;;;18.31;97.97
72857;BME280;62742;52.136;4.500;2023-08-12T07:49:55;101527.91;;;18.27;98.30
72857;BME280;62742;52.136;4.500;2023-08-12T07:52:22;101545.31;;;18.36;98.56
72857;BME280;62742;52.136;4.500;2023-08-12T07:54:48;101547.19;;;18.34;98.62
72857;BME280;62742;52.136;4.500;2023-08-12T07:57:15;101550.69;;;18.34;97.67
72857;BME280;62742;52.136;4.500;2023-08-12T07:59:41;101550.94;;;18.28;98.64
72857;BME280;62742;52.136;4.500;2023-08-12T08:02:08;101553.09;;;18.42;97.63
72857;BME280;62742;52.136;4.500;2023-08-12T08:04:35;101556.97;;;18.33;97.64
72857;BME280;62742;52.136;4.500;2023-08-12T08:07:01;101548.78;;;18.38;97.69
72857;BME280;62742;52.136;4.500;2023-08-12T08:09:28;101545.16;;;18.40;98.16
72857;BME280;62742;52.136;4.500;2023-08-12T08:11:54;101542.97;;;18.52;98.14
72857;BME280;62742;52.136;4.500;2023-08-12T08:14:21;101546.94;;;18.63;97.38
72857;BME280;62742;52.136;4.500;2023-08-12T08:16:47;101539.19;;;18.82;95.95
72857;BME280;62742;52.136;4.500;2023-08-12T08:19:14;101542.41;;;18.67;94.51
72857;BME280;62742;52.136;4.500;2023-08-12T08:21:41;101543.25;;;18.67;93.77
72857;BME280;62742;52.136;4.500;2023-08-12T08:24:08;101541.56;;;18.65;93.42
72857;BME280;62742;52.136;4.500;2023-08-12T08:26:39;101539.53;;;18.72;92.70
72857;BME280;62742;52.136;4.500;2023-08-12T08:29:08;101548.59;;;18.67;90.63
72857;BME280;62742;52.136;4.500;2023-08-12T08:31:36;101548.75;;;18.86;90.52
72857;BME280;62742;52.136;4.500;2023-08-12T08:34:04;101548.16;;;19.02;91.57
72857;BME280;62742;52.136;4.500;2023-08-12T08:36:31;101545.44;;;19.03;91.01
72857;BME280;62742;52.136;4.500;2023-08-12T08:38:58;101551.41;;;19.10;90.89
72857;BME280;62742;52.136;4.500;2023-08-12T08:41:24;101537.56;;;19.22;91.72
72857;BME280;62742;52.136;4.500;2023-08-12T08:43:55;101537.38;;;19.49;91.81
72857;BME280;62742;52.136;4.500;2023-08-12T08:46:29;101528.31;;;19.74;90.95
72857;BME280;62742;52.136;4.500;2023-08-12T08:48:58;101529.16;;;19.96;91.43
72857;BME280;62742;52.136;4.500;2023-08-12T08:51:29;101520.28;;;20.35;90.77
72857;BME280;62742;52.136;4.500;2023-08-12T08:53:57;101523.31;;;20.28;88.53
72857;BME280;62742;52.136;4.500;2023-08-12T08:56:25;101520.81;;;20.44;87.42
72857;BME280;62742;52.136;4.500;2023-08-12T08:58:52;101525.81;;;20.89;88.02
72857;BME280;62742;52.136;4.500;2023-08-12T09:01:20;101543.88;;;21.03;85.65
72857;BME280;62742;52.136;4.500;2023-08-12T09:03:51;101535.56;;;21.09;84.77
72857;BME280;62742;52.136;4.500;2023-08-12T09:06:26;101527.97;;;21.00;82.82
72857;BME280;62742;52.136;4.500;2023-08-12T09:08:55;101532.72;;;21.13;83.78
72857;BME280;62742;52.136;4.500;2023-08-12T09:11:23;101524.28;;;21.39;82.90
72857;BME280;62742;52.136;4.500;2023-08-12T09:13:50;101542.50;;;21.85;81.99
72857;BME280;62742;52.136;4.500;2023-08-12T09:16:17;101534.25;;;22.23;78.58
72857;BME280;62742;52.136;4.500;2023-08-12T09:18:45;101550.75;;;22.33;77.68
72857;BME280;62742;52.136;4.500;2023-08-12T09:21:12;101568.69;;;22.13;77.39
72857;BME280;62742;52.136;4.500;2023-08-12T09:23:39;101561.84;;;21.55;71.80
72857;BME280;62742;52.136;4.500;2023-08-12T09:26:16;101567.91;;;21.59;73.99
72857;BME280;62742;52.136;4.500;2023-08-12T09:28:45;101568.81;;;21.21;74.61
72857;BME280;62742;52.136;4.500;2023-08-12T09:31:25;101567.00;;;21.41;72.94
72857;BME280;62742;52.136;4.500;2023-08-12T09:34:06;101571.97;;;22.18;72.86
72857;BME280;62742;52.136;4.500;2023-08-12T09:36:33;101576.72;;;22.80;70.11
72857;BME280;62742;52.136;4.500;2023-08-12T09:39:00;101577.00;;;22.75;70.54
72857;BME280;62742;52.136;4.500;2023-08-12T09:41:34;101583.16;;;22.44;71.91
72857;BME280;62742;52.136;4.500;2023-08-12T09:44:02;101574.13;;;22.29;73.48
72857;BME280;62742;52.136;4.500;2023-08-12T09:46:29;101573.75;;;22.02;74.59
72857;BME280;62742;52.136;4.500;2023-08-12T09:48:59;101571.47;;;21.77;75.68
72857;BME280;62742;52.136;4.500;2023-08-12T09:51:26;101584.41;;;21.50;74.31
72857;BME280;62742;52.136;4.500;2023-08-12T09:53:53;101585.97;;;21.54;76.70
72857;BME280;62742;52.136;4.500;2023-08-12T09:56:23;101580.81;;;22.03;78.44
72857;BME280;62742;52.136;4.500;2023-08-12T09:58:50;101582.38;;;22.25;76.83
72857;BME280;62742;52.136;4.500;2023-08-12T10:01:19;101587.19;;;22.18;76.01
72857;BME280;62742;52.136;4.500;2023-08-12T10:03:51;101587.88;;;22.21;76.76
72857;BME280;62742;52.136;4.500;2023-08-12T10:06:20;101583.50;;;22.38;75.28
72857;BME280;62742;52.136;4.500;2023-08-12T10:08:49;101590.25;;;22.45;76.35
72857;BME280;62742;52.136;4.500;2023-08-12T10:11:16;101581.84;;;23.01;75.41
72857;BME280;62742;52.136;4.500;2023-08-12T10:13:43;101578.53;;;23.13;74.29
72857;BME280;62742;52.136;4.500;2023-08-12T10:16:11;101583.91;;;23.43;72.78
72857;BME280;62742;52.136;4.500;2023-08-12T10:18:39;101578.66;;;23.72;71.25
72857;BME280;62742;52.136;4.500;2023-08-12T10:21:09;101588.09;;;23.49;68.40
72857;BME280;62742;52.136;4.500;2023-08-12T10:23:37;101593.47;;;23.17;69.46
72857;BME280;62742;52.136;4.500;2023-08-12T10:26:05;101589.41;;;22.60;70.19
72857;BME280;62742;52.136;4.500;2023-08-12T10:28:34;101592.03;;;22.78;72.37
72857;BME280;62742;52.136;4.500;2023-08-12T10:31:04;101590.72;;;22.85;71.73
72857;BME280;62742;52.136;4.500;2023-08-12T10:33:41;101590.50;;;23.38;70.81
72857;BME280;62742;52.136;4.500;2023-08-12T10:36:08;101585.19;;;23.52;66.78
72857;BME280;62742;52.136;4.500;2023-08-12T10:38:36;101582.72;;;23.33;67.15
72857;BME280;62742;52.136;4.500;2023-08-12T10:41:23;101582.03;;;23.29;69.25
72857;BME280;62742;52.136;4.500;2023-08-12T10:43:53;101570.19;;;23.80;67.60
72857;BME280;62742;52.136;4.500;2023-08-12T10:46:35;101570.63;;;24.17;66.29
72857;BME280;62742;52.136;4.500;2023-08-12T10:49:10;101575.66;;;24.23;65.46
72857;BME280;62742;52.136;4.500;2023-08-12T10:54:20;101563.38;;;24.76;64.17
72857;BME280;62742;52.136;4.500;2023-08-12T11:07:41;101561.22;;;25.37;60.82
72857;BME280;62742;52.136;4.500;2023-08-12T11:15:28;101563.09;;;25.50;59.83
72857;BME280;62742;52.136;4.500;2023-08-12T11:18:15;101567.81;;;25.46;60.06
72857;BME280;62742;52.136;4.500;2023-08-12T11:20:47;101570.16;;;25.38;61.10
72857;BME280;62742;52.136;4.500;2023-08-12T11:23:15;101569.59;;;25.33;60.09
72857;BME280;62742;52.136;4.500;2023-08-12T11:25:43;101570.03;;;25.12;60.16
72857;BME280;62742;52.136;4.500;2023-08-12T11:28:11;101561.00;;;25.68;62.65
72857;BME280;62742;52.136;4.500;2023-08-12T11:30:40;101560.09;;;26.20;60.63
72857;BME280;62742;52.136;4.500;2023-08-12T11:33:09;101561.81;;;25.96;59.08
72857;BME280;62742;52.136;4.500;2023-08-12T11:35:36;101557.50;;;25.93;59.69
72857;BME280;62742;52.136;4.500;2023-08-12T11:38:05;101567.00;;;26.11;58.29
72857;BME280;62742;52.136;4.500;2023-08-12T11:40:33;101558.16;;;26.09;58.79
72857;BME280;62742;52.136;4.500;2023-08-12T11:43:01;101569.81;;;26.23;58.79
72857;BME280;62742;52.136;4.500;2023-08-12T11:45:29;101561.84;;;26.34;56.76
72857;BME280;62742;52.136;4.500;2023-08-12T11:47:56;101561.19;;;26.30;58.43
72857;BME280;62742;52.136;4.500;2023-08-12T11:50:25;101572.69;;;26.58;55.19
72857;BME280;62742;52.136;4.500;2023-08-12T11:52:53;101558.47;;;26.56;56.12
72857;BME280;62742;52.136;4.500;2023-08-12T11:55:24;101570.09;;;26.44;55.80
72857;BME280;62742;52.136;4.500;2023-08-12T11:57:52;101563.94;;;26.80;56.84
72857;BME280;62742;52.136;4.500;2023-08-12T12:00:18;101571.56;;;26.99;56.28
72857;BME280;62742;52.136;4.500;2023-08-12T12:02:49;101558.06;;;26.99;55.20
72857;BME280;62742;52.136;4.500;2023-08-12T12:05:20;101569.16;;;26.71;56.76
72857;BME280;62742;52.136;4.500;2023-08-12T12:07:52;101565.69;;;26.68;56.53
72857;BME280;62742;52.136;4.500;2023-08-12T12:10:32;101574.63;;;26.82;57.02
72857;BME280;62742;52.136;4.500;2023-08-12T12:13:02;101569.78;;;26.61;54.60
72857;BME280;62742;52.136;4.500;2023-08-12T12:15:41;101563.97;;;26.55;57.78
72857;BME280;62742;52.136;4.500;2023-08-12T12:18:11;101569.69;;;26.24;55.71
72857;BME280;62742;52.136;4.500;2023-08-12T12:20:57;101564.81;;;26.81;54.29
72857;BME280;62742;52.136;4.500;2023-08-12T12:23:32;101567.28;;;26.71;54.97
72857;BME280;62742;52.136;4.500;2023-08-12T12:26:01;101571.59;;;26.61;55.21
72857;BME280;62742;52.136;4.500;2023-08-12T12:28:29;101577.34;;;26.56;54.21
72857;BME280;62742;52.136;4.500;2023-08-12T12:30:56;101578.22;;;26.05;54.64
72857;BME280;62742;52.136;4.500;2023-08-12T12:33:22;101591.19;;;25.86;56.27
72857;BME280;62742;52.136;4.500;2023-08-12T12:35:49;101581.00;;;26.04;54.31
72857;BME280;62742;52.136;4.500;2023-08-12T12:38:15;101589.53;;;26.36;54.86
72857;BME280;62742;52.136;4.500;2023-08-12T12:40:42;101593.16;;;26.61;54.15
72857;BME280;62742;52.136;4.500;2023-08-12T12:43:08;101594.91;;;26.49;55.81
72857;BME280;62742;52.136;4.500;2023-08-12T12:45:34;101585.13;;;26.48;53.78
72857;BME280;62742;52.136;4.500;2023-08-12T12:48:01;101587.59;;;26.38;55.43
72857;BME280;62742;52.136;4.500;2023-08-12T12:50:27;101596.84;;;26.85;55.32
72857;BME280;62742;52.136;4.500;2023-08-12T12:52:54;101598.66;;;26.85;54.06
72857;BME280;62742;52.136;4.500;2023-08-12T12:55:21;101596.22;;;26.82;54.71
72857;BME280;62742;52.136;4.500;2023-08-12T12:57:47;101595.91;;;26.74;51.94
72857;BME280;62742;52.136;4.500;2023-08-12T13:00:14;101594.31;;;26.95;54.08
72857;BME280;62742;52.136;4.500;2023-08-12T13:02:41;101589.50;;;27.24;50.94
72857;BME280;62742;52.136;4.500;2023-08-12T13:05:08;101599.59;;;27.10;51.85
72857;BME280;62742;52.136;4.500;2023-08-12T13:07:35;101602.06;;;27.13;51.46
72857;BME280;62742;52.136;4.500;2023-08-12T13:10:02;101610.03;;;26.64;49.41
72857;BME280;62742;52.136;4.500;2023-08-12T13:12:28;101607.66;;;26.73;50.51
72857;BME280;62742;52.136;4.500;2023-08-12T13:14:55;101607.91;;;26.94;48.84